sensor_id;sensor_type;location;lat;lon;timestamp;P1;durP1;ratioP1;P2;durP2;ratioP2
46713;SDS011;32445;51.376;10.874;2023-04-25T00:02:11;7.30;;;3.67;;
46713;SDS011;32445;51.376;10.874;2023-04-25T00:05:11;9.75;;;3.55;;
46713;SDS011;32445;51.376;10.874;2023-04-25T00:08:12;3.20;;;3.00;;
46713;SDS011;32445;51.376;10.874;2023-04-25T00:11:12;4.32;;;3.30;;
46713;SDS011;32445;51.376;10.874;2023-04-25T00:14:13;3.42;;;3.10;;
46713;SDS011;32445;51.376;10.874;2023-04-25T00:17:14;4.35;;;3.95;;
46713;SDS011;32445;51.376;10.874;2023-04-25T00:20:14;3.67;;;3.15;;
46713;SDS011;32445;51.376;10.874;2023-04-25T00:23:15;4.82;;;3.08;;
46713;SDS011;32445;51.376;10.874;2023-04-25T00:26:18;5.13;;;2.50;;
46713;SDS011;32445;51.376;10.874;2023-04-25T00:29:18;4.10;;;2.92;;
46713;SDS011;32445;51.376;10.874;2023-04-25T00:32:18;4.80;;;2.60;;
46713;SDS011;32445;51.376;10.874;2023-04-25T00:35:19;3.78;;;2.80;;
46713;SDS011;32445;51.376;10.874;2023-04-25T00:38:19;5.18;;;3.20;;
46713;SDS011;32445;51.376;10.874;2023-04-25T00:41:20;5.40;;;3.80;;
46713;SDS011;32445;51.376;10.874;2023-04-25T00:44:20;11.50;;;3.78;;
46713;SDS011;32445;51.376;10.874;2023-04-25T00:47:21;3.97;;;3.13;;
46713;SDS011;32445;51.376;10.874;2023-04-25T00:50:22;4.03;;;3.72;;
46713;SDS011;32445;51.376;10.874;2023-04-25T00:53:24;5.22;;;3.47;;
46713;SDS011;32445;51.376;10.874;2023-04-25T00:56:26;4.93;;;3.88;;
46713;SDS011;32445;51.376;10.874;2023-04-25T00:59:26;3.88;;;3.50;;
46713;SDS011;32445;51.376;10.874;2023-04-25T01:02:28;6.93;;;3.55;;
46713;SDS011;32445;51.376;10.874;2023-04-25T01:05:29;4.25;;;3.88;;
46713;SDS011;32445;51.376;10.874;2023-04-25T01:08:29;8.05;;;4.35;;
46713;SDS011;32445;51.376;10.874;2023-04-25T01:11:30;6.28;;;4.75;;
46713;SDS011;32445;51.376;10.874;2023-04-25T01:14:30;6.78;;;5.25;;
46713;SDS011;32445;51.376;10.874;2023-04-25T01:17:31;5.60;;;4.30;;
46713;SDS011;32445;51.376;10.874;2023-04-25T01:20:33;6.50;;;5.00;;
46713;SDS011;32445;51.376;10.874;2023-04-25T01:23:34;7.13;;;6.03;;
46713;SDS011;32445;51.376;10.874;2023-04-25T01:26:35;8.15;;;5.72;;
46713;SDS011;32445;51.376;10.874;2023-04-25T01:29:36;7.60;;;5.37;;
46713;SDS011;32445;51.376;10.874;2023-04-25T01:32:36;6.93;;;5.78;;
46713;SDS011;32445;51.376;10.874;2023-04-25T01:35:40;7.95;;;6.32;;
46713;SDS011;32445;51.376;10.874;2023-04-25T01:38:41;7.00;;;6.30;;
46713;SDS011;32445;51.376;10.874;2023-04-25T01:41:44;8.43;;;6.05;;
46713;SDS011;32445;51.376;10.874;2023-04-25T01:44:45;7.18;;;6.55;;
46713;SDS011;32445;51.376;10.874;2023-04-25T01:47:46;11.02;;;7.40;;
46713;SDS011;32445;51.376;10.874;2023-04-25T01:50:49;8.95;;;7.68;;
46713;SDS011;32445;51.376;10.874;2023-04-25T01:53:50;9.60;;;8.13;;
46713;SDS011;32445;51.376;10.874;2023-04-25T01:56:51;8.75;;;7.47;;
46713;SDS011;32445;51.376;10.874;2023-04-25T01:59:52;9.68;;;7.10;;
46713;SDS011;32445;51.376;10.874;2023-04-25T02:02:58;21.58;;;7.25;;
46713;SDS011;32445;51.376;10.874;2023-04-25T02:05:58;12.20;;;8.18;;
46713;SDS011;32445;51.376;10.874;2023-04-25T02:08:59;13.07;;;8.23;;
46713;SDS011;32445;51.376;10.874;2023-04-25T02:11:59;11.18;;;7.43;;
46713;SDS011;32445;51.376;10.874;2023-04-25T02:15:00;10.98;;;8.85;;
46713;SDS011;32445;51.376;10.874;2023-04-25T02:18:00;9.30;;;7.90;;
46713;SDS011;32445;51.376;10.874;2023-04-25T02:21:01;8.70;;;7.88;;
46713;SDS011;32445;51.376;10.874;2023-04-25T02:24:03;9.02;;;8.32;;
46713;SDS011;32445;51.376;10.874;2023-04-25T02:27:03;10.25;;;9.13;;
46713;SDS011;32445;51.376;10.874;2023-04-25T02:30:04;10.68;;;9.55;;
46713;SDS011;32445;51.376;10.874;2023-04-25T02:33:06;11.00;;;8.93;;
46713;SDS011;32445;51.376;10.874;2023-04-25T02:36:06;9.10;;;8.30;;
46713;SDS011;32445;51.376;10.874;2023-04-25T02:39:07;9.50;;;8.60;;
46713;SDS011;32445;51.376;10.874;2023-04-25T02:42:08;11.65;;;9.40;;
46713;SDS011;32445;51.376;10.874;2023-04-25T02:45:08;9.65;;;8.02;;
46713;SDS011;32445;51.376;10.874;2023-04-25T02:48:09;8.43;;;7.20;;
46713;SDS011;32445;51.376;10.874;2023-04-25T02:51:09;9.18;;;7.05;;
46713;SDS011;32445;51.376;10.874;2023-04-25T02:54:10;11.07;;;7.55;;
46713;SDS011;32445;51.376;10.874;2023-04-25T02:57:10;14.10;;;9.30;;
46713;SDS011;32445;51.376;10.874;2023-04-25T03:00:11;8.57;;;7.75;;
46713;SDS011;32445;51.376;10.874;2023-04-25T03:03:11;9.30;;;8.48;;
46713;SDS011;32445;51.376;10.874;2023-04-25T03:06:12;10.00;;;8.95;;
46713;SDS011;32445;51.376;10.874;2023-04-25T03:09:12;7.78;;;7.13;;
46713;SDS011;32445;51.376;10.874;2023-04-25T03:12:12;7.45;;;6.72;;
46713;SDS011;32445;51.376;10.874;2023-04-25T03:15:13;7.57;;;7.00;;
46713;SDS011;32445;51.376;10.874;2023-04-25T03:18:13;9.38;;;7.50;;
46713;SDS011;32445;51.376;10.874;2023-04-25T03:21:13;10.73;;;8.13;;
46713;SDS011;32445;51.376;10.874;2023-04-25T03:24:14;8.32;;;7.13;;
46713;SDS011;32445;51.376;10.874;2023-04-25T03:27:15;7.43;;;6.72;;
46713;SDS011;32445;51.376;10.874;2023-04-25T03:30:15;8.80;;;6.53;;
46713;SDS011;32445;51.376;10.874;2023-04-25T03:33:15;10.15;;;7.55;;
46713;SDS011;32445;51.376;10.874;2023-04-25T03:36:16;7.78;;;5.43;;
46713;SDS011;32445;51.376;10.874;2023-04-25T03:39:16;6.85;;;6.18;;
46713;SDS011;32445;51.376;10.874;2023-04-25T03:42:17;6.00;;;5.43;;
46713;SDS011;32445;51.376;10.874;2023-04-25T03:45:17;7.30;;;5.93;;
46713;SDS011;32445;51.376;10.874;2023-04-25T03:48:18;7.43;;;6.00;;
46713;SDS011;32445;51.376;10.874;2023-04-25T03:51:21;7.50;;;5.75;;
46713;SDS011;32445;51.376;10.874;2023-04-25T03:54:21;7.78;;;6.97;;
46713;SDS011;32445;51.376;10.874;2023-04-25T03:57:22;6.75;;;6.15;;
46713;SDS011;32445;51.376;10.874;2023-04-25T04:00:22;7.13;;;6.40;;
46713;SDS011;32445;51.376;10.874;2023-04-25T04:03:22;8.68;;;6.50;;
46713;SDS011;32445;51.376;10.874;2023-04-25T04:06:22;6.45;;;5.85;;
46713;SDS011;32445;51.376;10.874;2023-04-25T04:09:23;7.75;;;6.47;;
46713;SDS011;32445;51.376;10.874;2023-04-25T04:12:23;13.15;;;6.78;;
46713;SDS011;32445;51.376;10.874;2023-04-25T04:15:24;9.35;;;7.40;;
46713;SDS011;32445;51.376;10.874;2023-04-25T04:18:24;7.13;;;5.65;;
46713;SDS011;32445;51.376;10.874;2023-04-25T04:21:24;7.18;;;6.20;;
46713;SDS011;32445;51.376;10.874;2023-04-25T04:24:27;20.30;;;8.07;;
46713;SDS011;32445;51.376;10.874;2023-04-25T04:27:28;7.28;;;6.65;;
46713;SDS011;32445;51.376;10.874;2023-04-25T04:30:29;10.37;;;7.40;;
46713;SDS011;32445;51.376;10.874;2023-04-25T04:33:30;13.68;;;8.55;;
46713;SDS011;32445;51.376;10.874;2023-04-25T04:36:31;11.68;;;10.35;;
46713;SDS011;32445;51.376;10.874;2023-04-25T04:39:31;14.43;;;9.85;;
46713;SDS011;32445;51.376;10.874;2023-04-25T04:42:33;10.93;;;9.00;;
46713;SDS011;32445;51.376;10.874;2023-04-25T04:45:33;13.23;;;11.52;;
46713;SDS011;32445;51.376;10.874;2023-04-25T04:48:33;10.20;;;9.25;;
46713;SDS011;32445;51.376;10.874;2023-04-25T04:51:34;10.00;;;8.27;;
46713;SDS011;32445;51.376;10.874;2023-04-25T04:54:34;11.57;;;8.40;;
46713;SDS011;32445;51.376;10.874;2023-04-25T04:57:35;8.45;;;7.55;;
46713;SDS011;32445;51.376;10.874;2023-04-25T05:00:35;18.73;;;7.50;;
46713;SDS011;32445;51.376;10.874;2023-04-25T05:03:36;9.57;;;7.55;;
46713;SDS011;32445;51.376;10.874;2023-04-25T05:06:36;13.50;;;8.77;;
46713;SDS011;32445;51.376;10.874;2023-04-25T05:09:36;12.10;;;8.30;;
46713;SDS011;32445;51.376;10.874;2023-04-25T05:12:37;9.57;;;8.65;;
46713;SDS011;32445;51.376;10.874;2023-04-25T05:15:37;11.63;;;8.30;;
46713;SDS011;32445;51.376;10.874;2023-04-25T05:18:38;10.68;;;9.68;;
46713;SDS011;32445;51.376;10.874;2023-04-25T05:21:39;37.70;;;21.38;;
46713;SDS011;32445;51.376;10.874;2023-04-25T05:24:40;31.85;;;20.60;;
46713;SDS011;32445;51.376;10.874;2023-04-25T05:27:40;29.55;;;19.25;;
46713;SDS011;32445;51.376;10.874;2023-04-25T05:30:40;76.97;;;40.45;;
46713;SDS011;32445;51.376;10.874;2023-04-25T05:33:41;20.58;;;15.60;;
46713;SDS011;32445;51.376;10.874;2023-04-25T05:36:41;34.70;;;23.58;;
46713;SDS011;32445;51.376;10.874;2023-04-25T05:39:42;17.60;;;13.40;;
46713;SDS011;32445;51.376;10.874;2023-04-25T05:42:42;11.57;;;10.05;;
46713;SDS011;32445;51.376;10.874;2023-04-25T05:45:42;10.43;;;9.43;;
46713;SDS011;32445;51.376;10.874;2023-04-25T05:48:43;12.07;;;8.68;;
46713;SDS011;32445;51.376;10.874;2023-04-25T05:51:43;16.02;;;11.20;;
46713;SDS011;32445;51.376;10.874;2023-04-25T05:54:43;8.80;;;7.90;;
46713;SDS011;32445;51.376;10.874;2023-04-25T05:57:45;13.13;;;9.25;;
46713;SDS011;32445;51.376;10.874;2023-04-25T06:00:45;14.32;;;9.60;;
46713;SDS011;32445;51.376;10.874;2023-04-25T06:03:46;11.95;;;9.75;;
46713;SDS011;32445;51.376;10.874;2023-04-25T06:06:46;9.98;;;8.75;;
46713;SDS011;32445;51.376;10.874;2023-04-25T06:09:46;9.30;;;8.10;;
46713;SDS011;32445;51.376;10.874;2023-04-25T06:12:47;10.38;;;9.27;;
46713;SDS011;32445;51.376;10.874;2023-04-25T06:15:47;10.65;;;7.30;;
46713;SDS011;32445;51.376;10.874;2023-04-25T06:18:47;9.40;;;8.48;;
46713;SDS011;32445;51.376;10.874;2023-04-25T06:21:48;8.07;;;7.43;;
46713;SDS011;32445;51.376;10.874;2023-04-25T06:24:48;9.63;;;7.80;;
46713;SDS011;32445;51.376;10.874;2023-04-25T06:27:48;7.85;;;7.03;;
46713;SDS011;32445;51.376;10.874;2023-04-25T06:30:49;7.30;;;6.70;;
46713;SDS011;32445;51.376;10.874;2023-04-25T06:33:49;18.52;;;13.50;;
46713;SDS011;32445;51.376;10.874;2023-04-25T06:36:49;9.77;;;7.25;;
46713;SDS011;32445;51.376;10.874;2023-04-25T06:39:50;8.18;;;7.40;;
46713;SDS011;32445;51.376;10.874;2023-04-25T06:42:50;9.30;;;7.47;;
46713;SDS011;32445;51.376;10.874;2023-04-25T06:45:50;8.40;;;7.22;;
46713;SDS011;32445;51.376;10.874;2023-04-25T06:48:51;6.75;;;6.18;;
46713;SDS011;32445;51.376;10.874;2023-04-25T06:51:51;5.18;;;4.68;;
46713;SDS011;32445;51.376;10.874;2023-04-25T06:54:52;5.50;;;5.10;;
46713;SDS011;32445;51.376;10.874;2023-04-25T06:57:52;5.72;;;5.05;;
46713;SDS011;32445;51.376;10.874;2023-04-25T07:00:52;5.93;;;5.43;;
46713;SDS011;32445;51.376;10.874;2023-04-25T07:03:53;7.47;;;6.05;;
46713;SDS011;32445;51.376;10.874;2023-04-25T07:06:53;6.07;;;5.38;;
46713;SDS011;32445;51.376;10.874;2023-04-25T07:09:54;4.18;;;3.53;;
46713;SDS011;32445;51.376;10.874;2023-04-25T07:12:55;3.22;;;2.85;;
46713;SDS011;32445;51.376;10.874;2023-04-25T07:15:55;4.93;;;2.30;;
46713;SDS011;32445;51.376;10.874;2023-04-25T07:18:56;8.85;;;3.00;;
46713;SDS011;32445;51.376;10.874;2023-04-25T07:21:57;3.30;;;1.75;;
46713;SDS011;32445;51.376;10.874;2023-04-25T07:24:57;6.30;;;3.42;;
46713;SDS011;32445;51.376;10.874;2023-04-25T07:27:58;7.82;;;2.70;;
46713;SDS011;32445;51.376;10.874;2023-04-25T07:30:58;6.90;;;3.72;;
46713;SDS011;32445;51.376;10.874;2023-04-25T07:33:58;7.22;;;3.55;;
46713;SDS011;32445;51.376;10.874;2023-04-25T07:36:59;12.02;;;4.43;;
46713;SDS011;32445;51.376;10.874;2023-04-25T07:39:59;10.55;;;4.22;;
46713;SDS011;32445;51.376;10.874;2023-04-25T07:42:59;12.35;;;3.25;;
46713;SDS011;32445;51.376;10.874;2023-04-25T07:46:00;20.23;;;4.70;;
46713;SDS011;32445;51.376;10.874;2023-04-25T07:49:00;11.75;;;3.55;;
46713;SDS011;32445;51.376;10.874;2023-04-25T07:52:01;8.48;;;4.20;;
46713;SDS011;32445;51.376;10.874;2023-04-25T07:55:02;13.43;;;4.80;;
46713;SDS011;32445;51.376;10.874;2023-04-25T07:58:03;11.70;;;4.72;;
46713;SDS011;32445;51.376;10.874;2023-04-25T08:01:03;16.40;;;4.72;;
46713;SDS011;32445;51.376;10.874;2023-04-25T08:04:05;14.55;;;5.18;;
46713;SDS011;32445;51.376;10.874;2023-04-25T08:07:05;15.73;;;4.95;;
46713;SDS011;32445;51.376;10.874;2023-04-25T08:10:06;12.88;;;5.07;;
46713;SDS011;32445;51.376;10.874;2023-04-25T08:13:07;11.23;;;4.40;;
46713;SDS011;32445;51.376;10.874;2023-04-25T08:16:07;13.85;;;4.70;;
46713;SDS011;32445;51.376;10.874;2023-04-25T08:19:07;11.20;;;5.13;;
46713;SDS011;32445;51.376;10.874;2023-04-25T08:22:08;18.58;;;4.50;;
46713;SDS011;32445;51.376;10.874;2023-04-25T08:25:08;12.35;;;4.47;;
46713;SDS011;32445;51.376;10.874;2023-04-25T08:28:08;14.02;;;4.32;;
46713;SDS011;32445;51.376;10.874;2023-04-25T08:31:09;12.40;;;4.60;;
46713;SDS011;32445;51.376;10.874;2023-04-25T08:34:10;20.60;;;3.83;;
46713;SDS011;32445;51.376;10.874;2023-04-25T08:37:11;13.88;;;3.85;;
46713;SDS011;32445;51.376;10.874;2023-04-25T08:40:14;10.73;;;4.28;;
46713;SDS011;32445;51.376;10.874;2023-04-25T08:43:15;12.63;;;4.05;;
46713;SDS011;32445;51.376;10.874;2023-04-25T08:46:20;18.00;;;3.92;;
46713;SDS011;32445;51.376;10.874;2023-04-25T08:49:21;15.75;;;4.30;;
46713;SDS011;32445;51.376;10.874;2023-04-25T08:52:22;10.25;;;4.15;;
46713;SDS011;32445;51.376;10.874;2023-04-25T08:55:24;8.73;;;4.20;;
46713;SDS011;32445;51.376;10.874;2023-04-25T08:58:25;16.38;;;4.97;;
46713;SDS011;32445;51.376;10.874;2023-04-25T09:01:28;17.42;;;4.45;;
46713;SDS011;32445;51.376;10.874;2023-04-25T09:04:30;17.30;;;5.15;;
46713;SDS011;32445;51.376;10.874;2023-04-25T09:07:31;12.27;;;4.78;;
46713;SDS011;32445;51.376;10.874;2023-04-25T09:10:32;14.13;;;4.88;;
46713;SDS011;32445;51.376;10.874;2023-04-25T09:13:32;20.10;;;4.78;;
46713;SDS011;32445;51.376;10.874;2023-04-25T09:16:32;13.00;;;4.28;;
46713;SDS011;32445;51.376;10.874;2023-04-25T09:19:34;12.20;;;3.85;;
46713;SDS011;32445;51.376;10.874;2023-04-25T09:22:36;11.73;;;4.03;;
46713;SDS011;32445;51.376;10.874;2023-04-25T09:25:37;14.45;;;3.95;;
46713;SDS011;32445;51.376;10.874;2023-04-25T09:28:42;17.90;;;3.42;;
46713;SDS011;32445;51.376;10.874;2023-04-25T09:31:43;11.88;;;3.95;;
46713;SDS011;32445;51.376;10.874;2023-04-25T09:34:50;9.45;;;3.97;;
46713;SDS011;32445;51.376;10.874;2023-04-25T09:37:55;9.33;;;3.47;;
46713;SDS011;32445;51.376;10.874;2023-04-25T09:40:55;7.40;;;3.87;;
46713;SDS011;32445;51.376;10.874;2023-04-25T09:43:56;12.65;;;3.92;;
46713;SDS011;32445;51.376;10.874;2023-04-25T09:46:58;13.45;;;3.22;;
46713;SDS011;32445;51.376;10.874;2023-04-25T09:49:59;20.40;;;4.28;;
46713;SDS011;32445;51.376;10.874;2023-04-25T09:53:05;14.13;;;3.35;;
46713;SDS011;32445;51.376;10.874;2023-04-25T09:56:07;11.32;;;4.03;;
46713;SDS011;32445;51.376;10.874;2023-04-25T09:59:09;12.18;;;4.20;;
46713;SDS011;32445;51.376;10.874;2023-04-25T10:02:12;16.23;;;4.72;;
46713;SDS011;32445;51.376;10.874;2023-04-25T10:05:13;12.02;;;3.58;;
46713;SDS011;32445;51.376;10.874;2023-04-25T10:08:14;13.85;;;4.32;;
46713;SDS011;32445;51.376;10.874;2023-04-25T10:11:16;15.65;;;3.78;;
46713;SDS011;32445;51.376;10.874;2023-04-25T10:14:18;14.23;;;4.00;;
46713;SDS011;32445;51.376;10.874;2023-04-25T10:17:19;10.30;;;2.83;;
46713;SDS011;32445;51.376;10.874;2023-04-25T10:20:20;8.57;;;2.92;;
46713;SDS011;32445;51.376;10.874;2023-04-25T10:26:23;9.32;;;3.53;;
46713;SDS011;32445;51.376;10.874;2023-04-25T10:29:25;5.88;;;3.15;;
46713;SDS011;32445;51.376;10.874;2023-04-25T10:32:26;8.52;;;3.20;;
46713;SDS011;32445;51.376;10.874;2023-04-25T10:35:26;20.60;;;3.75;;
46713;SDS011;32445;51.376;10.874;2023-04-25T10:38:28;12.07;;;2.65;;
46713;SDS011;32445;51.376;10.874;2023-04-25T10:41:29;9.60;;;2.38;;
46713;SDS011;32445;51.376;10.874;2023-04-25T10:44:30;5.85;;;2.28;;
46713;SDS011;32445;51.376;10.874;2023-04-25T10:47:35;7.28;;;2.38;;
46713;SDS011;32445;51.376;10.874;2023-04-25T10:50:37;8.18;;;2.22;;
46713;SDS011;32445;51.376;10.874;2023-04-25T10:53:39;8.88;;;2.63;;
46713;SDS011;32445;51.376;10.874;2023-04-25T10:56:40;7.45;;;3.22;;
46713;SDS011;32445;51.376;10.874;2023-04-25T10:59:44;6.85;;;2.22;;
46713;SDS011;32445;51.376;10.874;2023-04-25T11:02:45;4.78;;;2.30;;
46713;SDS011;32445;51.376;10.874;2023-04-25T11:05:47;6.95;;;2.15;;
46713;SDS011;32445;51.376;10.874;2023-04-25T11:08:50;6.65;;;2.25;;
46713;SDS011;32445;51.376;10.874;2023-04-25T11:11:54;3.80;;;1.85;;
46713;SDS011;32445;51.376;10.874;2023-04-25T11:15:02;6.93;;;2.00;;
46713;SDS011;32445;51.376;10.874;2023-04-25T11:18:04;6.22;;;2.58;;
46713;SDS011;32445;51.376;10.874;2023-04-25T11:21:04;7.20;;;1.83;;
46713;SDS011;32445;51.376;10.874;2023-04-25T11:24:06;8.02;;;2.28;;
46713;SDS011;32445;51.376;10.874;2023-04-25T11:27:06;6.82;;;2.47;;
46713;SDS011;32445;51.376;10.874;2023-04-25T11:30:10;8.25;;;3.55;;
46713;SDS011;32445;51.376;10.874;2023-04-25T11:33:12;3.85;;;2.15;;
46713;SDS011;32445;51.376;10.874;2023-04-25T11:36:13;6.28;;;2.35;;
46713;SDS011;32445;51.376;10.874;2023-04-25T11:39:13;9.27;;;2.58;;
46713;SDS011;32445;51.376;10.874;2023-04-25T11:42:15;4.28;;;2.10;;
46713;SDS011;32445;51.376;10.874;2023-04-25T11:45:15;6.50;;;2.30;;
46713;SDS011;32445;51.376;10.874;2023-04-25T11:48:16;6.07;;;2.30;;
46713;SDS011;32445;51.376;10.874;2023-04-25T11:51:17;13.67;;;3.10;;
46713;SDS011;32445;51.376;10.874;2023-04-25T11:54:17;6.93;;;2.15;;
46713;SDS011;32445;51.376;10.874;2023-04-25T11:57:18;7.63;;;2.40;;
46713;SDS011;32445;51.376;10.874;2023-04-25T12:00:20;7.80;;;2.33;;
46713;SDS011;32445;51.376;10.874;2023-04-25T12:03:21;8.63;;;2.33;;
46713;SDS011;32445;51.376;10.874;2023-04-25T12:06:26;6.57;;;1.88;;
46713;SDS011;32445;51.376;10.874;2023-04-25T12:09:29;5.47;;;2.13;;
46713;SDS011;32445;51.376;10.874;2023-04-25T12:12:34;6.00;;;1.92;;
46713;SDS011;32445;51.376;10.874;2023-04-25T12:15:35;4.45;;;1.90;;
46713;SDS011;32445;51.376;10.874;2023-04-25T12:18:35;6.57;;;1.98;;
46713;SDS011;32445;51.376;10.874;2023-04-25T12:21:36;7.07;;;1.80;;
46713;SDS011;32445;51.376;10.874;2023-04-25T12:24:36;5.68;;;2.33;;
46713;SDS011;32445;51.376;10.874;2023-04-25T12:27:36;4.65;;;1.80;;
46713;SDS011;32445;51.376;10.874;2023-04-25T12:34:06;7.05;;;2.22;;
46713;SDS011;32445;51.376;10.874;2023-04-25T12:37:07;5.13;;;1.83;;
46713;SDS011;32445;51.376;10.874;2023-04-25T12:40:07;5.25;;;2.08;;
46713;SDS011;32445;51.376;10.874;2023-04-25T12:43:08;5.05;;;2.00;;
46713;SDS011;32445;51.376;10.874;2023-04-25T12:46:09;5.55;;;2.25;;
46713;SDS011;32445;51.376;10.874;2023-04-25T12:49:09;9.65;;;2.85;;
46713;SDS011;32445;51.376;10.874;2023-04-25T12:52:09;7.65;;;2.10;;
46713;SDS011;32445;51.376;10.874;2023-04-25T12:55:10;7.78;;;2.53;;
46713;SDS011;32445;51.376;10.874;2023-04-25T12:58:10;7.28;;;2.53;;
46713;SDS011;32445;51.376;10.874;2023-04-25T13:01:11;11.15;;;2.60;;
46713;SDS011;32445;51.376;10.874;2023-04-25T13:04:12;4.97;;;2.33;;
46713;SDS011;32445;51.376;10.874;2023-04-25T13:07:12;7.47;;;4.22;;
46713;SDS011;32445;51.376;10.874;2023-04-25T13:10:13;9.70;;;4.38;;
46713;SDS011;32445;51.376;10.874;2023-04-25T13:13:13;5.97;;;2.03;;
46713;SDS011;32445;51.376;10.874;2023-04-25T13:16:13;6.00;;;2.88;;
46713;SDS011;32445;51.376;10.874;2023-04-25T13:19:14;7.15;;;2.63;;
46713;SDS011;32445;51.376;10.874;2023-04-25T13:22:14;6.22;;;4.13;;
46713;SDS011;32445;51.376;10.874;2023-04-25T13:28:16;6.90;;;3.10;;
46713;SDS011;32445;51.376;10.874;2023-04-25T13:31:17;9.50;;;4.28;;
46713;SDS011;32445;51.376;10.874;2023-04-25T13:34:17;7.68;;;2.95;;
46713;SDS011;32445;51.376;10.874;2023-04-25T13:37:17;8.48;;;4.25;;
46713;SDS011;32445;51.376;10.874;2023-04-25T13:40:18;7.47;;;3.20;;
46713;SDS011;32445;51.376;10.874;2023-04-25T13:43:19;6.93;;;4.13;;
46713;SDS011;32445;51.376;10.874;2023-04-25T13:46:20;4.93;;;2.90;;
46713;SDS011;32445;51.376;10.874;2023-04-25T13:49:21;6.70;;;2.67;;
46713;SDS011;32445;51.376;10.874;2023-04-25T13:52:23;10.98;;;3.13;;
46713;SDS011;32445;51.376;10.874;2023-04-25T13:55:27;6.53;;;2.90;;
46713;SDS011;32445;51.376;10.874;2023-04-25T13:58:27;4.97;;;2.38;;
46713;SDS011;32445;51.376;10.874;2023-04-25T14:01:27;3.75;;;2.38;;
46713;SDS011;32445;51.376;10.874;2023-04-25T14:04:30;8.30;;;3.25;;
46713;SDS011;32445;51.376;10.874;2023-04-25T14:07:30;11.95;;;2.28;;
46713;SDS011;32445;51.376;10.874;2023-04-25T14:10:31;10.23;;;2.92;;
46713;SDS011;32445;51.376;10.874;2023-04-25T14:13:31;7.15;;;2.10;;
46713;SDS011;32445;51.376;10.874;2023-04-25T14:16:33;13.68;;;1.83;;
46713;SDS011;32445;51.376;10.874;2023-04-25T14:19:34;3.58;;;1.70;;
46713;SDS011;32445;51.376;10.874;2023-04-25T14:22:34;2.85;;;2.30;;
46713;SDS011;32445;51.376;10.874;2023-04-25T14:25:35;4.60;;;2.10;;
46713;SDS011;32445;51.376;10.874;2023-04-25T14:28:36;5.67;;;2.07;;
46713;SDS011;32445;51.376;10.874;2023-04-25T14:31:36;7.35;;;2.15;;
46713;SDS011;32445;51.376;10.874;2023-04-25T14:34:37;3.08;;;1.90;;
46713;SDS011;32445;51.376;10.874;2023-04-25T14:37:37;6.53;;;2.28;;
46713;SDS011;32445;51.376;10.874;2023-04-25T14:40:38;4.60;;;1.98;;
46713;SDS011;32445;51.376;10.874;2023-04-25T14:43:39;3.40;;;1.67;;
46713;SDS011;32445;51.376;10.874;2023-04-25T14:46:42;3.15;;;2.22;;
46713;SDS011;32445;51.376;10.874;2023-04-25T14:49:43;4.22;;;2.13;;
46713;SDS011;32445;51.376;10.874;2023-04-25T14:52:43;3.97;;;3.17;;
46713;SDS011;32445;51.376;10.874;2023-04-25T14:55:45;4.17;;;2.03;;
46713;SDS011;32445;51.376;10.874;2023-04-25T14:58:45;8.63;;;2.75;;
46713;SDS011;32445;51.376;10.874;2023-04-25T15:01:46;3.70;;;2.42;;
46713;SDS011;32445;51.376;10.874;2023-04-25T15:04:46;7.03;;;2.35;;
46713;SDS011;32445;51.376;10.874;2023-04-25T15:07:46;5.30;;;2.88;;
46713;SDS011;32445;51.376;10.874;2023-04-25T15:10:47;6.30;;;4.38;;
46713;SDS011;32445;51.376;10.874;2023-04-25T15:13:48;5.78;;;4.15;;
46713;SDS011;32445;51.376;10.874;2023-04-25T15:16:48;3.88;;;3.13;;
46713;SDS011;32445;51.376;10.874;2023-04-25T15:19:48;4.40;;;2.35;;
46713;SDS011;32445;51.376;10.874;2023-04-25T15:22:49;3.65;;;2.20;;
46713;SDS011;32445;51.376;10.874;2023-04-25T15:25:49;4.40;;;2.47;;
46713;SDS011;32445;51.376;10.874;2023-04-25T15:31:52;5.32;;;2.13;;
46713;SDS011;32445;51.376;10.874;2023-04-25T15:34:53;5.35;;;1.88;;
46713;SDS011;32445;51.376;10.874;2023-04-25T15:37:53;3.72;;;2.40;;
46713;SDS011;32445;51.376;10.874;2023-04-25T15:40:53;3.97;;;1.65;;
46713;SDS011;32445;51.376;10.874;2023-04-25T15:43:54;3.15;;;1.95;;
46713;SDS011;32445;51.376;10.874;2023-04-25T15:46:54;5.28;;;1.63;;
46713;SDS011;32445;51.376;10.874;2023-04-25T15:49:54;6.07;;;2.80;;
46713;SDS011;32445;51.376;10.874;2023-04-25T15:52:55;4.43;;;1.75;;
46713;SDS011;32445;51.376;10.874;2023-04-25T15:55:56;4.50;;;2.13;;
46713;SDS011;32445;51.376;10.874;2023-04-25T15:58:57;3.75;;;2.08;;
46713;SDS011;32445;51.376;10.874;2023-04-25T16:01:57;6.22;;;1.52;;
46713;SDS011;32445;51.376;10.874;2023-04-25T16:04:58;3.80;;;1.98;;
46713;SDS011;32445;51.376;10.874;2023-04-25T16:07:58;6.43;;;2.35;;
46713;SDS011;32445;51.376;10.874;2023-04-25T16:10:59;10.10;;;2.42;;
46713;SDS011;32445;51.376;10.874;2023-04-25T16:14:00;5.38;;;2.17;;
46713;SDS011;32445;51.376;10.874;2023-04-25T16:17:00;8.40;;;1.30;;
46713;SDS011;32445;51.376;10.874;2023-04-25T16:20:00;3.80;;;2.00;;
46713;SDS011;32445;51.376;10.874;2023-04-25T16:23:05;5.03;;;1.60;;
46713;SDS011;32445;51.376;10.874;2023-04-25T16:26:05;6.72;;;2.03;;
46713;SDS011;32445;51.376;10.874;2023-04-25T16:29:07;2.97;;;1.50;;
46713;SDS011;32445;51.376;10.874;2023-04-25T16:32:08;8.02;;;1.52;;
46713;SDS011;32445;51.376;10.874;2023-04-25T16:35:08;2.63;;;1.40;;
46713;SDS011;32445;51.376;10.874;2023-04-25T16:38:09;8.15;;;1.95;;
46713;SDS011;32445;51.376;10.874;2023-04-25T16:41:09;5.67;;;1.90;;
46713;SDS011;32445;51.376;10.874;2023-04-25T16:44:12;4.22;;;1.80;;
46713;SDS011;32445;51.376;10.874;2023-04-25T16:47:12;6.22;;;1.90;;
46713;SDS011;32445;51.376;10.874;2023-04-25T16:50:13;7.40;;;2.22;;
46713;SDS011;32445;51.376;10.874;2023-04-25T16:53:13;3.60;;;2.00;;
46713;SDS011;32445;51.376;10.874;2023-04-25T16:56:14;4.40;;;2.47;;
46713;SDS011;32445;51.376;10.874;2023-04-25T16:59:14;4.82;;;2.05;;
46713;SDS011;32445;51.376;10.874;2023-04-25T17:02:15;5.70;;;1.95;;
46713;SDS011;32445;51.376;10.874;2023-04-25T17:05:16;2.50;;;1.52;;
46713;SDS011;32445;51.376;10.874;2023-04-25T17:08:16;3.45;;;1.20;;
46713;SDS011;32445;51.376;10.874;2023-04-25T17:11:17;2.60;;;1.20;;
46713;SDS011;32445;51.376;10.874;2023-04-25T17:14:17;2.03;;;1.20;;
46713;SDS011;32445;51.376;10.874;2023-04-25T17:17:18;2.10;;;1.75;;
46713;SDS011;32445;51.376;10.874;2023-04-25T17:20:18;2.72;;;1.33;;
46713;SDS011;32445;51.376;10.874;2023-04-25T17:23:19;3.92;;;1.70;;
46713;SDS011;32445;51.376;10.874;2023-04-25T17:26:19;3.83;;;1.30;;
46713;SDS011;32445;51.376;10.874;2023-04-25T17:29:20;5.03;;;1.33;;
46713;SDS011;32445;51.376;10.874;2023-04-25T17:32:22;8.50;;;2.10;;
46713;SDS011;32445;51.376;10.874;2023-04-25T17:35:22;1.13;;;1.02;;
46713;SDS011;32445;51.376;10.874;2023-04-25T17:38:23;2.13;;;1.23;;
46713;SDS011;32445;51.376;10.874;2023-04-25T17:41:24;2.20;;;1.40;;
46713;SDS011;32445;51.376;10.874;2023-04-25T17:44:24;5.05;;;2.08;;
46713;SDS011;32445;51.376;10.874;2023-04-25T17:47:25;4.27;;;2.00;;
46713;SDS011;32445;51.376;10.874;2023-04-25T17:50:25;4.90;;;1.35;;
46713;SDS011;32445;51.376;10.874;2023-04-25T17:53:26;3.05;;;1.60;;
46713;SDS011;32445;51.376;10.874;2023-04-25T17:56:26;7.20;;;1.67;;
46713;SDS011;32445;51.376;10.874;2023-04-25T17:59:26;3.08;;;2.08;;
46713;SDS011;32445;51.376;10.874;2023-04-25T18:02:27;2.17;;;1.35;;